sensor_id;sensor_type;location;lat;lon;timestamp;temperature;humidity
45849;DHT22;31567;54.600;9.842;2023-02-14T00:03:29;8.00;97.50
45849;DHT22;31567;54.600;9.842;2023-02-14T00:07:10;8.00;97.50
45849;DHT22;31567;54.600;9.842;2023-02-14T00:10:49;8.10;97.50
45849;DHT22;31567;54.600;9.842;2023-02-14T00:14:29;8.10;97.60
45849;DHT22;31567;54.600;9.842;2023-02-14T00:18:27;8.10;97.60
45849;DHT22;31567;54.600;9.842;2023-02-14T00:22:27;8.10;97.50
45849;DHT22;31567;54.600;9.842;2023-02-14T00:26:12;8.00;97.40
45849;DHT22;31567;54.600;9.842;2023-02-14T00:29:52;7.90;97.40
45849;DHT22;31567;54.600;9.842;2023-02-14T00:33:33;7.90;97.50
45849;DHT22;31567;54.600;9.842;2023-02-14T00:37:12;7.90;97.60
45849;DHT22;31567;54.600;9.842;2023-02-14T00:40:52;8.00;97.70
45849;DHT22;31567;54.600;9.842;2023-02-14T00:44:31;8.00;97.80
45849;DHT22;31567;54.600;9.842;2023-02-14T00:48:11;8.00;97.90
45849;DHT22;31567;54.600;9.842;2023-02-14T00:51:50;7.90;97.90
45849;DHT22;31567;54.600;9.842;2023-02-14T00:55:30;8.00;98.10
45849;DHT22;31567;54.600;9.842;2023-02-14T00:59:10;7.90;98.20
45849;DHT22;31567;54.600;9.842;2023-02-14T01:02:49;7.90;98.40
45849;DHT22;31567;54.600;9.842;2023-02-14T01:06:29;7.90;98.40
45849;DHT22;31567;54.600;9.842;2023-02-14T01:10:09;7.80;98.40
45849;DHT22;31567;54.600;9.842;2023-02-14T01:13:49;7.90;98.50
45849;DHT22;31567;54.600;9.842;2023-02-14T01:17:29;7.80;98.50
45849;DHT22;31567;54.600;9.842;2023-02-14T01:21:19;7.80;98.50
45849;DHT22;31567;54.600;9.842;2023-02-14T01:24:59;7.80;98.50
45849;DHT22;31567;54.600;9.842;2023-02-14T01:28:39;7.80;98.40
45849;DHT22;31567;54.600;9.842;2023-02-14T01:32:19;7.60;98.30
45849;DHT22;31567;54.600;9.842;2023-02-14T01:35:59;7.60;98.20
45849;DHT22;31567;54.600;9.842;2023-02-14T01:39:40;7.70;98.10
45849;DHT22;31567;54.600;9.842;2023-02-14T01:43:20;7.70;98.00
45849;DHT22;31567;54.600;9.842;2023-02-14T01:47:02;7.70;98.00
45849;DHT22;31567;54.600;9.842;2023-02-14T01:50:44;7.80;98.10
45849;DHT22;31567;54.600;9.842;2023-02-14T01:54:26;7.80;98.20
45849;DHT22;31567;54.600;9.842;2023-02-14T01:58:10;7.80;98.30
45849;DHT22;31567;54.600;9.842;2023-02-14T02:01:51;7.80;98.50
45849;DHT22;31567;54.600;9.842;2023-02-14T02:05:31;7.80;98.60
45849;DHT22;31567;54.600;9.842;2023-02-14T02:13:04;7.90;98.50
45849;DHT22;31567;54.600;9.842;2023-02-14T02:24:55;7.70;98.10
45849;DHT22;31567;54.600;9.842;2023-02-14T02:37:20;7.60;97.90
45849;DHT22;31567;54.600;9.842;2023-02-14T02:52:41;7.50;98.10
45849;DHT22;31567;54.600;9.842;2023-02-14T02:56:54;7.60;98.10
45849;DHT22;31567;54.600;9.842;2023-02-14T03:00:35;7.50;98.20
45849;DHT22;31567;54.600;9.842;2023-02-14T03:04:15;7.40;98.20
45849;DHT22;31567;54.600;9.842;2023-02-14T03:08:15;7.40;98.20
45849;DHT22;31567;54.600;9.842;2023-02-14T03:16:07;7.30;98.20
45849;DHT22;31567;54.600;9.842;2023-02-14T03:20:12;7.40;98.30
45849;DHT22;31567;54.600;9.842;2023-02-14T03:28:19;7.40;98.30
45849;DHT22;31567;54.600;9.842;2023-02-14T03:40:10;7.30;98.60
45849;DHT22;31567;54.600;9.842;2023-02-14T03:43:54;7.30;98.40
45849;DHT22;31567;54.600;9.842;2023-02-14T03:47:36;7.20;98.50
45849;DHT22;31567;54.600;9.842;2023-02-14T03:51:19;7.30;98.50
45849;DHT22;31567;54.600;9.842;2023-02-14T03:55:02;7.30;98.50
45849;DHT22;31567;54.600;9.842;2023-02-14T03:58:46;7.30;98.60
45849;DHT22;31567;54.600;9.842;2023-02-14T04:02:34;7.30;98.70
45849;DHT22;31567;54.600;9.842;2023-02-14T04:06:19;7.30;98.80
45849;DHT22;31567;54.600;9.842;2023-02-14T04:09:58;7.30;98.80
45849;DHT22;31567;54.600;9.842;2023-02-14T04:13:38;7.30;98.80
45849;DHT22;31567;54.600;9.842;2023-02-14T04:17:18;7.30;98.90
45849;DHT22;31567;54.600;9.842;2023-02-14T04:21:16;7.20;98.90
45849;DHT22;31567;54.600;9.842;2023-02-14T04:24:56;7.10;98.90
45849;DHT22;31567;54.600;9.842;2023-02-14T04:28:35;7.10;98.90
45849;DHT22;31567;54.600;9.842;2023-02-14T04:32:20;7.20;98.80
45849;DHT22;31567;54.600;9.842;2023-02-14T04:36:00;7.20;98.80
45849;DHT22;31567;54.600;9.842;2023-02-14T04:39:40;7.10;98.80
45849;DHT22;31567;54.600;9.842;2023-02-14T04:43:19;7.10;98.90
45849;DHT22;31567;54.600;9.842;2023-02-14T04:47:00;7.00;98.90
45849;DHT22;31567;54.600;9.842;2023-02-14T04:50:39;7.00;99.00
45849;DHT22;31567;54.600;9.842;2023-02-14T04:54:19;6.90;98.90
45849;DHT22;31567;54.600;9.842;2023-02-14T04:57:58;6.90;98.90
45849;DHT22;31567;54.600;9.842;2023-02-14T05:01:38;6.90;98.80
45849;DHT22;31567;54.600;9.842;2023-02-14T05:05:17;6.90;98.90
45849;DHT22;31567;54.600;9.842;2023-02-14T05:08:57;6.90;98.80
45849;DHT22;31567;54.600;9.842;2023-02-14T05:12:37;6.90;98.90
45849;DHT22;31567;54.600;9.842;2023-02-14T05:16:17;6.90;99.00
45849;DHT22;31567;54.600;9.842;2023-02-14T05:19:56;6.90;99.00
45849;DHT22;31567;54.600;9.842;2023-02-14T05:23:36;6.90;98.90
45849;DHT22;31567;54.600;9.842;2023-02-14T05:27:16;6.90;99.00
45849;DHT22;31567;54.600;9.842;2023-02-14T05:30:55;6.80;99.10
45849;DHT22;31567;54.600;9.842;2023-02-14T05:34:36;6.80;99.20
45849;DHT22;31567;54.600;9.842;2023-02-14T05:38:15;6.80;99.30
45849;DHT22;31567;54.600;9.842;2023-02-14T05:41:55;6.80;99.30
45849;DHT22;31567;54.600;9.842;2023-02-14T05:45:34;6.80;99.30
45849;DHT22;31567;54.600;9.842;2023-02-14T05:49:14;6.80;99.30
45849;DHT22;31567;54.600;9.842;2023-02-14T05:52:54;6.80;99.20
45849;DHT22;31567;54.600;9.842;2023-02-14T05:56:33;6.70;99.20
45849;DHT22;31567;54.600;9.842;2023-02-14T06:00:14;6.70;99.20
45849;DHT22;31567;54.600;9.842;2023-02-14T06:03:53;6.70;99.20
45849;DHT22;31567;54.600;9.842;2023-02-14T06:07:33;6.60;99.20
45849;DHT22;31567;54.600;9.842;2023-02-14T06:11:12;6.70;99.20
45849;DHT22;31567;54.600;9.842;2023-02-14T06:14:52;6.70;99.30
45849;DHT22;31567;54.600;9.842;2023-02-14T06:18:31;6.60;99.10
45849;DHT22;31567;54.600;9.842;2023-02-14T06:22:11;6.70;99.00
45849;DHT22;31567;54.600;9.842;2023-02-14T06:25:51;6.70;99.00
45849;DHT22;31567;54.600;9.842;2023-02-14T06:29:30;6.60;99.00
45849;DHT22;31567;54.600;9.842;2023-02-14T06:33:10;6.70;99.10
45849;DHT22;31567;54.600;9.842;2023-02-14T06:36:49;6.60;98.90
45849;DHT22;31567;54.600;9.842;2023-02-14T06:40:29;6.50;98.80
45849;DHT22;31567;54.600;9.842;2023-02-14T06:44:08;6.60;98.90
45849;DHT22;31567;54.600;9.842;2023-02-14T06:47:48;6.50;99.10
45849;DHT22;31567;54.600;9.842;2023-02-14T06:51:28;6.50;99.00
45849;DHT22;31567;54.600;9.842;2023-02-14T06:55:08;6.40;99.00
45849;DHT22;31567;54.600;9.842;2023-02-14T06:58:47;6.40;99.00
45849;DHT22;31567;54.600;9.842;2023-02-14T07:02:27;6.40;99.00
45849;DHT22;31567;54.600;9.842;2023-02-14T07:06:06;6.40;99.00
45849;DHT22;31567;54.600;9.842;2023-02-14T07:09:46;6.30;99.10
45849;DHT22;31567;54.600;9.842;2023-02-14T07:13:25;6.20;99.10
45849;DHT22;31567;54.600;9.842;2023-02-14T07:17:05;6.30;99.20
45849;DHT22;31567;54.600;9.842;2023-02-14T07:20:45;6.20;99.10
45849;DHT22;31567;54.600;9.842;2023-02-14T07:24:24;6.20;99.10
45849;DHT22;31567;54.600;9.842;2023-02-14T07:28:04;6.30;99.20
45849;DHT22;31567;54.600;9.842;2023-02-14T07:31:43;6.30;99.20
45849;DHT22;31567;54.600;9.842;2023-02-14T07:35:23;6.50;99.20
45849;DHT22;31567;54.600;9.842;2023-02-14T07:39:02;6.50;99.20
45849;DHT22;31567;54.600;9.842;2023-02-14T07:42:42;6.60;99.20
45849;DHT22;31567;54.600;9.842;2023-02-14T07:46:22;6.60;99.20
45849;DHT22;31567;54.600;9.842;2023-02-14T07:50:01;6.70;99.20
45849;DHT22;31567;54.600;9.842;2023-02-14T07:53:41;6.80;99.40
45849;DHT22;31567;54.600;9.842;2023-02-14T07:57:21;6.70;99.10
45849;DHT22;31567;54.600;9.842;2023-02-14T08:01:00;6.80;99.10
45849;DHT22;31567;54.600;9.842;2023-02-14T08:04:40;6.90;99.20
45849;DHT22;31567;54.600;9.842;2023-02-14T08:08:19;6.90;99.10
45849;DHT22;31567;54.600;9.842;2023-02-14T08:11:59;7.00;99.10
45849;DHT22;31567;54.600;9.842;2023-02-14T08:15:57;7.00;99.00
45849;DHT22;31567;54.600;9.842;2023-02-14T08:19:42;7.10;99.00
45849;DHT22;31567;54.600;9.842;2023-02-14T08:23:22;7.10;98.90
45849;DHT22;31567;54.600;9.842;2023-02-14T08:27:02;7.00;98.80
45849;DHT22;31567;54.600;9.842;2023-02-14T08:30:42;7.10;99.00
45849;DHT22;31567;54.600;9.842;2023-02-14T08:34:22;7.20;99.00
45849;DHT22;31567;54.600;9.842;2023-02-14T08:38:02;7.20;98.90
45849;DHT22;31567;54.600;9.842;2023-02-14T08:41:42;7.30;99.10
45849;DHT22;31567;54.600;9.842;2023-02-14T08:45:21;7.40;98.80
45849;DHT22;31567;54.600;9.842;2023-02-14T08:49:01;7.40;98.80
45849;DHT22;31567;54.600;9.842;2023-02-14T08:52:41;7.50;98.70
45849;DHT22;31567;54.600;9.842;2023-02-14T08:56:22;7.60;98.70
45849;DHT22;31567;54.600;9.842;2023-02-14T09:00:03;7.60;98.60
45849;DHT22;31567;54.600;9.842;2023-02-14T09:03:43;7.60;98.50
45849;DHT22;31567;54.600;9.842;2023-02-14T09:07:23;7.60;98.40
45849;DHT22;31567;54.600;9.842;2023-02-14T09:14:46;7.70;98.40
45849;DHT22;31567;54.600;9.842;2023-02-14T09:18:26;7.70;98.40
45849;DHT22;31567;54.600;9.842;2023-02-14T09:22:07;7.80;98.40
45849;DHT22;31567;54.600;9.842;2023-02-14T09:25:47;7.80;98.40
45849;DHT22;31567;54.600;9.842;2023-02-14T09:29:27;7.90;98.40
45849;DHT22;31567;54.600;9.842;2023-02-14T09:33:07;7.90;98.40
45849;DHT22;31567;54.600;9.842;2023-02-14T09:36:47;8.00;98.30
45849;DHT22;31567;54.600;9.842;2023-02-14T09:40:26;8.10;98.30
45849;DHT22;31567;54.600;9.842;2023-02-14T09:48:25;8.20;98.20
45849;DHT22;31567;54.600;9.842;2023-02-14T09:52:12;8.20;98.10
45849;DHT22;31567;54.600;9.842;2023-02-14T09:56:19;8.20;98.00
45849;DHT22;31567;54.600;9.842;2023-02-14T10:00:40;8.10;98.20
45849;DHT22;31567;54.600;9.842;2023-02-14T10:04:31;8.10;98.00
45849;DHT22;31567;54.600;9.842;2023-02-14T10:12:26;8.20;98.10
45849;DHT22;31567;54.600;9.842;2023-02-14T10:20:00;8.40;98.10
45849;DHT22;31567;54.600;9.842;2023-02-14T10:23:45;8.40;98.10
45849;DHT22;31567;54.600;9.842;2023-02-14T10:27:38;8.50;98.10
45849;DHT22;31567;54.600;9.842;2023-02-14T10:47:17;8.80;97.90
45849;DHT22;31567;54.600;9.842;2023-02-14T10:51:05;8.80;97.90
45849;DHT22;31567;54.600;9.842;2023-02-14T10:54:55;8.80;97.80
45849;DHT22;31567;54.600;9.842;2023-02-14T10:58:37;8.80;97.90
45849;DHT22;31567;54.600;9.842;2023-02-14T11:02:22;8.90;98.00
45849;DHT22;31567;54.600;9.842;2023-02-14T11:06:03;9.00;97.90
45849;DHT22;31567;54.600;9.842;2023-02-14T11:09:43;9.00;97.80
45849;DHT22;31567;54.600;9.842;2023-02-14T11:13:34;9.10;97.80
45849;DHT22;31567;54.600;9.842;2023-02-14T11:17:27;9.20;97.70
45849;DHT22;31567;54.600;9.842;2023-02-14T11:21:12;9.20;97.40
45849;DHT22;31567;54.600;9.842;2023-02-14T11:25:05;9.20;97.40
45849;DHT22;31567;54.600;9.842;2023-02-14T11:32:30;9.30;97.30
45849;DHT22;31567;54.600;9.842;2023-02-14T11:36:13;9.40;97.00
45849;DHT22;31567;54.600;9.842;2023-02-14T11:39:58;9.40;96.40
45849;DHT22;31567;54.600;9.842;2023-02-14T11:43:40;9.30;96.40
45849;DHT22;31567;54.600;9.842;2023-02-14T11:47:28;9.30;96.60
45849;DHT22;31567;54.600;9.842;2023-02-14T11:51:11;9.40;96.30
45849;DHT22;31567;54.600;9.842;2023-02-14T11:54:57;9.50;96.20
45849;DHT22;31567;54.600;9.842;2023-02-14T12:02:44;9.70;96.40
45849;DHT22;31567;54.600;9.842;2023-02-14T12:06:26;9.80;96.30
45849;DHT22;31567;54.600;9.842;2023-02-14T12:13:57;9.90;96.00
45849;DHT22;31567;54.600;9.842;2023-02-14T12:17:38;10.00;96.00
45849;DHT22;31567;54.600;9.842;2023-02-14T12:21:26;10.10;96.00
45849;DHT22;31567;54.600;9.842;2023-02-14T12:25:43;10.10;95.90
45849;DHT22;31567;54.600;9.842;2023-02-14T12:29:32;10.20;95.80
45849;DHT22;31567;54.600;9.842;2023-02-14T12:33:18;10.30;95.60
45849;DHT22;31567;54.600;9.842;2023-02-14T12:37:20;10.40;95.60
45849;DHT22;31567;54.600;9.842;2023-02-14T12:41:23;10.50;95.60
45849;DHT22;31567;54.600;9.842;2023-02-14T12:45:19;10.50;95.50
45849;DHT22;31567;54.600;9.842;2023-02-14T12:49:32;10.50;95.40
45849;DHT22;31567;54.600;9.842;2023-02-14T13:05:25;10.70;95.30
45849;DHT22;31567;54.600;9.842;2023-02-14T13:20:57;10.90;94.90
45849;DHT22;31567;54.600;9.842;2023-02-14T13:24:47;10.90;94.70
45849;DHT22;31567;54.600;9.842;2023-02-14T13:28:28;11.00;94.70
45849;DHT22;31567;54.600;9.842;2023-02-14T13:32:12;11.10;94.60
45849;DHT22;31567;54.600;9.842;2023-02-14T13:36:05;11.10;94.50
45849;DHT22;31567;54.600;9.842;2023-02-14T13:40:07;11.20;94.50
45849;DHT22;31567;54.600;9.842;2023-02-14T13:43:54;11.10;94.40
45849;DHT22;31567;54.600;9.842;2023-02-14T13:47:34;11.00;94.40
45849;DHT22;31567;54.600;9.842;2023-02-14T13:51:14;11.00;94.40
45849;DHT22;31567;54.600;9.842;2023-02-14T13:55:00;10.90;94.60
45849;DHT22;31567;54.600;9.842;2023-02-14T13:59:03;10.70;94.60
45849;DHT22;31567;54.600;9.842;2023-02-14T14:02:52;10.50;94.70
45849;DHT22;31567;54.600;9.842;2023-02-14T14:10:45;10.00;95.10
45849;DHT22;31567;54.600;9.842;2023-02-14T14:14:27;9.80;95.50
45849;DHT22;31567;54.600;9.842;2023-02-14T14:25:41;9.30;96.30
45849;DHT22;31567;54.600;9.842;2023-02-14T14:29:33;9.30;96.40
45849;DHT22;31567;54.600;9.842;2023-02-14T14:33:35;9.30;96.60
45849;DHT22;31567;54.600;9.842;2023-02-14T14:37:18;9.40;97.00
45849;DHT22;31567;54.600;9.842;2023-02-14T14:41:00;9.50;96.70
45849;DHT22;31567;54.600;9.842;2023-02-14T14:44:47;9.60;96.50
45849;DHT22;31567;54.600;9.842;2023-02-14T14:48:45;9.60;96.30
45849;DHT22;31567;54.600;9.842;2023-02-14T14:52:31;9.70;96.20
45849;DHT22;31567;54.600;9.842;2023-02-14T14:56:20;9.70;96.20
45849;DHT22;31567;54.600;9.842;2023-02-14T15:00:22;9.80;96.10
45849;DHT22;31567;54.600;9.842;2023-02-14T15:04:18;9.80;96.00
45849;DHT22;31567;54.600;9.842;2023-02-14T15:11:58;9.80;95.80
45849;DHT22;31567;54.600;9.842;2023-02-14T15:15:58;9.70;95.80
45849;DHT22;31567;54.600;9.842;2023-02-14T15:19:42;9.60;95.80
45849;DHT22;31567;54.600;9.842;2023-02-14T15:23:23;9.50;95.90
45849;DHT22;31567;54.600;9.842;2023-02-14T15:27:04;9.40;96.00
45849;DHT22;31567;54.600;9.842;2023-02-14T15:30:43;9.40;96.10
45849;DHT22;31567;54.600;9.842;2023-02-14T15:34:34;9.40;96.10
45849;DHT22;31567;54.600;9.842;2023-02-14T15:38:17;9.30;96.00
45849;DHT22;31567;54.600;9.842;2023-02-14T15:41:58;9.20;96.10
45849;DHT22;31567;54.600;9.842;2023-02-14T15:45:38;9.10;96.10
45849;DHT22;31567;54.600;9.842;2023-02-14T15:49:20;9.00;96.20
45849;DHT22;31567;54.600;9.842;2023-02-14T15:56:59;8.80;96.50
45849;DHT22;31567;54.600;9.842;2023-02-14T16:00:42;8.70;96.60
45849;DHT22;31567;54.600;9.842;2023-02-14T16:04:29;8.60;96.70
45849;DHT22;31567;54.600;9.842;2023-02-14T16:08:32;8.60;96.80
45849;DHT22;31567;54.600;9.842;2023-02-14T16:16:09;8.40;96.90
45849;DHT22;31567;54.600;9.842;2023-02-14T16:19:49;8.30;97.00
45849;DHT22;31567;54.600;9.842;2023-02-14T16:23:29;8.20;97.10
45849;DHT22;31567;54.600;9.842;2023-02-14T16:27:09;8.10;97.20
45849;DHT22;31567;54.600;9.842;2023-02-14T16:30:53;8.00;97.20
45849;DHT22;31567;54.600;9.842;2023-02-14T16:34:34;8.00;97.30
45849;DHT22;31567;54.600;9.842;2023-02-14T16:38:16;7.90;97.40
45849;DHT22;31567;54.600;9.842;2023-02-14T16:41:56;7.80;97.50
45849;DHT22;31567;54.600;9.842;2023-02-14T16:45:36;7.70;97.60
45849;DHT22;31567;54.600;9.842;2023-02-14T16:49:15;7.70;97.70
45849;DHT22;31567;54.600;9.842;2023-02-14T16:52:55;7.60;97.80
45849;DHT22;31567;54.600;9.842;2023-02-14T16:56:41;7.60;97.90
45849;DHT22;31567;54.600;9.842;2023-02-14T17:00:22;7.50;97.90
45849;DHT22;31567;54.600;9.842;2023-02-14T17:04:02;7.50;98.10
45849;DHT22;31567;54.600;9.842;2023-02-14T17:07:42;7.40;98.20
45849;DHT22;31567;54.600;9.842;2023-02-14T17:11:23;7.30;98.30
45849;DHT22;31567;54.600;9.842;2023-02-14T17:15:12;7.30;98.30
45849;DHT22;31567;54.600;9.842;2023-02-14T17:18:53;7.20;98.40
45849;DHT22;31567;54.600;9.842;2023-02-14T17:22:33;7.20;98.40
45849;DHT22;31567;54.600;9.842;2023-02-14T17:26:13;7.10;98.50
45849;DHT22;31567;54.600;9.842;2023-02-14T17:29:52;7.10;98.60
45849;DHT22;31567;54.600;9.842;2023-02-14T17:33:32;7.00;98.60
45849;DHT22;31567;54.600;9.842;2023-02-14T17:37:12;7.00;98.80
45849;DHT22;31567;54.600;9.842;2023-02-14T17:40:51;7.00;98.90
45849;DHT22;31567;54.600;9.842;2023-02-14T17:44:31;7.00;99.00
45849;DHT22;31567;54.600;9.842;2023-02-14T17:48:14;6.90;99.00
45849;DHT22;31567;54.600;9.842;2023-02-14T17:51:53;6.90;99.10
45849;DHT22;31567;54.600;9.842;2023-02-14T17:55:37;6.80;99.20
45849;DHT22;31567;54.600;9.842;2023-02-14T17:59:17;6.80;99.30
45849;DHT22;31567;54.600;9.842;2023-02-14T18:02:56;6.80;99.30
45849;DHT22;31567;54.600;9.842;2023-02-14T18:06:36;6.80;99.40
45849;DHT22;31567;54.600;9.842;2023-02-14T18:10:16;6.70;99.50
45849;DHT22;31567;54.600;9.842;2023-02-14T18:13:56;6.70;99.60
45849;DHT22;31567;54.600;9.842;2023-02-14T18:17:37;6.70;99.60
45849;DHT22;31567;54.600;9.842;2023-02-14T18:21:18;6.70;99.60
45849;DHT22;31567;54.600;9.842;2023-02-14T18:24:59;6.60;99.60
45849;DHT22;31567;54.600;9.842;2023-02-14T18:28:38;6.60;99.70
45849;DHT22;31567;54.600;9.842;2023-02-14T18:32:18;6.50;99.80
45849;DHT22;31567;54.600;9.842;2023-02-14T18:36:04;6.50;99.80
45849;DHT22;31567;54.600;9.842;2023-02-14T18:39:45;6.40;99.90
45849;DHT22;31567;54.600;9.842;2023-02-14T18:43:25;6.40;99.90
45849;DHT22;31567;54.600;9.842;2023-02-14T18:47:04;6.40;99.90
45849;DHT22;31567;54.600;9.842;2023-02-14T18:50:45;6.40;99.90
45849;DHT22;31567;54.600;9.842;2023-02-14T18:54:25;6.30;99.90
45849;DHT22;31567;54.600;9.842;2023-02-14T18:58:04;6.30;99.90
45849;DHT22;31567;54.600;9.842;2023-02-14T19:01:44;6.30;99.90
45849;DHT22;31567;54.600;9.842;2023-02-14T19:05:24;6.30;99.90
45849;DHT22;31567;54.600;9.842;2023-02-14T19:09:08;6.20;99.90
45849;DHT22;31567;54.600;9.842;2023-02-14T19:12:48;6.20;99.90
45849;DHT22;31567;54.600;9.842;2023-02-14T19:16:32;6.10;99.90
45849;DHT22;31567;54.600;9.842;2023-02-14T19:20:12;6.10;99.90
45849;DHT22;31567;54.600;9.842;2023-02-14T19:23:53;6.10;99.90
45849;DHT22;31567;54.600;9.842;2023-02-14T19:27:34;6.10;99.90
45849;DHT22;31567;54.600;9.842;2023-02-14T19:31:15;6.00;99.90
45849;DHT22;31567;54.600;9.842;2023-02-14T19:34:55;6.10;99.90
45849;DHT22;31567;54.600;9.842;2023-02-14T19:38:34;6.00;99.90
45849;DHT22;31567;54.600;9.842;2023-02-14T19:42:14;6.00;99.90
45849;DHT22;31567;54.600;9.842;2023-02-14T19:45:53;6.00;99.90
45849;DHT22;31567;54.600;9.842;2023-02-14T19:49:33;6.00;99.90
45849;DHT22;31567;54.600;9.842;2023-02-14T19:53:13;5.90;99.90
45849;DHT22;31567;54.600;9.842;2023-02-14T19:56:52;5.90;99.90
45849;DHT22;31567;54.600;9.842;2023-02-14T20:00:34;5.90;99.90
45849;DHT22;31567;54.600;9.842;2023-02-14T20:04:18;5.80;99.90
45849;DHT22;31567;54.600;9.842;2023-02-14T20:07:58;5.80;99.90
45849;DHT22;31567;54.600;9.842;2023-02-14T20:11:39;5.80;99.90
45849;DHT22;31567;54.600;9.842;2023-02-14T20:15:20;5.80;99.90
45849;DHT22;31567;54.600;9.842;2023-02-14T20:19:01;5.70;99.90
45849;DHT22;31567;54.600;9.842;2023-02-14T20:22:41;5.50;99.90
45849;DHT22;31567;54.600;9.842;2023-02-14T20:26:21;5.30;99.90
45849;DHT22;31567;54.600;9.842;2023-02-14T20:30:00;5.30;99.90
45849;DHT22;31567;54.600;9.842;2023-02-14T20:33:40;5.30;99.90
45849;DHT22;31567;54.600;9.842;2023-02-14T20:37:20;5.40;99.90
45849;DHT22;31567;54.600;9.842;2023-02-14T20:41:07;5.40;99.90
45849;DHT22;31567;54.600;9.842;2023-02-14T20:44:47;5.40;99.90
45849;DHT22;31567;54.600;9.842;2023-02-14T20:48:28;5.40;99.90
45849;DHT22;31567;54.600;9.842;2023-02-14T20:52:08;5.50;99.90
45849;DHT22;31567;54.600;9.842;2023-02-14T20:55:51;5.50;99.90
45849;DHT22;31567;54.600;9.842;2023-02-14T20:59:31;5.50;99.90
45849;DHT22;31567;54.600;9.842;2023-02-14T21:03:11;5.50;99.90
45849;DHT22;31567;54.600;9.842;2023-02-14T21:06:50;5.50;99.90
45849;DHT22;31567;54.600;9.842;2023-02-14T21:10:30;5.50;99.90
45849;DHT22;31567;54.600;9.842;2023-02-14T21:14:10;5.50;99.90
45849;DHT22;31567;54.600;9.842;2023-02-14T21:17:50;5.40;99.90
45849;DHT22;31567;54.600;9.842;2023-02-14T21:21:31;5.40;99.90
45849;DHT22;31567;54.600;9.842;2023-02-14T21:25:13;5.30;99.90
45849;DHT22;31567;54.600;9.842;2023-02-14T21:28:52;5.20;99.90
45849;DHT22;31567;54.600;9.842;2023-02-14T21:32:32;5.20;99.90
45849;DHT22;31567;54.600;9.842;2023-02-14T21:36:14;5.20;99.90
45849;DHT22;31567;54.600;9.842;2023-02-14T21:39:54;5.10;99.90
45849;DHT22;31567;54.600;9.842;2023-02-14T21:43:35;5.20;99.90
45849;DHT22;31567;54.600;9.842;2023-02-14T21:47:15;5.30;99.90
45849;DHT22;31567;54.600;9.842;2023-02-14T21:50:55;5.30;99.90
45849;DHT22;31567;54.600;9.842;2023-02-14T21:54:34;5.30;99.90
45849;DHT22;31567;54.600;9.842;2023-02-14T21:58:14;5.10;99.90
45849;DHT22;31567;54.600;9.842;2023-02-14T22:01:53;5.20;99.90
45849;DHT22;31567;54.600;9.842;2023-02-14T22:05:33;5.10;99.90
45849;DHT22;31567;54.600;9.842;2023-02-14T22:09:13;5.10;99.90
45849;DHT22;31567;54.600;9.842;2023-02-14T22:12:53;5.10;99.90
45849;DHT22;31567;54.600;9.842;2023-02-14T22:16:32;5.00;99.90
45849;DHT22;31567;54.600;9.842;2023-02-14T22:20:14;5.00;99.90
45849;DHT22;31567;54.600;9.842;2023-02-14T22:23:55;5.00;99.90
45849;DHT22;31567;54.600;9.842;2023-02-14T22:27:37;5.00;99.90
45849;DHT22;31567;54.600;9.842;2023-02-14T22:31:18;4.90;99.90
45849;DHT22;31567;54.600;9.842;2023-02-14T22:34:58;4.90;99.90
45849;DHT22;31567;54.600;9.842;2023-02-14T22:38:37;4.90;99.90
45849;DHT22;31567;54.600;9.842;2023-02-14T22:42:17;4.80;99.90
45849;DHT22;31567;54.600;9.842;2023-02-14T22:46:01;4.90;99.90
45849;DHT22;31567;54.600;9.842;2023-02-14T22:49:41;4.90;99.90
45849;DHT22;31567;54.600;9.842;2023-02-14T22:53:21;4.90;99.90
45849;DHT22;31567;54.600;9.842;2023-02-14T22:57:00;4.80;99.90
45849;DHT22;31567;54.600;9.842;2023-02-14T23:00:40;4.80;99.90
45849;DHT22;31567;54.600;9.842;2023-02-14T23:04:22;4.80;99.90
45849;DHT22;31567;54.600;9.842;2023-02-14T23:08:03;4.80;99.90
45849;DHT22;31567;54.600;9.842;2023-02-14T23:11:43;4.70;99.90
45849;DHT22;31567;54.600;9.842;2023-02-14T23:15:23;4.70;99.90
45849;DHT22;31567;54.600;9.842;2023-02-14T23:19:24;4.60;99.90
45849;DHT22;31567;54.600;9.842;2023-02-14T23:23:23;4.40;99.90
45849;DHT22;31567;54.600;9.842;2023-02-14T23:27:03;4.40;99.90
45849;DHT22;31567;54.600;9.842;2023-02-14T23:30:42;4.30;99.90
45849;DHT22;31567;54.600;9.842;2023-02-14T23:34:27;4.30;99.90
45849;DHT22;31567;54.600;9.842;2023-02-14T23:38:07;4.30;99.90
45849;DHT22;31567;54.600;9.842;2023-02-14T23:41:46;4.30;99.90
45849;DHT22;31567;54.600;9.842;2023-02-14T23:45:26;4.20;99.90
45849;DHT22;31567;54.600;9.842;2023-02-14T23:49:15;4.20;99.90
45849;DHT22;31567;54.600;9.842;2023-02-14T23:52:56;4.20;99.90
45849;DHT22;31567;54.600;9.842;2023-02-14T23:56:36;4.30;99.90
